CheckWX is a tool to help pilots better visualize weather data.  It is not intended as a substitute for an official pre-flight weather briefing.

17:45:51 UTC

KTRM TAF
Jacqueline Cochran Regional Airport
Palm Springs, California, USA
KTRM 111121Z 1112/1212 VRB04KT P6SM SCT250

Dec-11@
12:00 UTC

Dec-11 @ 12:00 UTC

Dec-12@
12:00 UTC

Dec-12 @ 12:00 UTC

KTRM 111121Z 1112/1212 VRB04KT P6SM SCT250
Wind
  • Variable at 4 KTS
Cloud Levels
  • Scattered at 25,000' AGL